createdAt,value
2023-05-15T00:01:38.306Z,100615.30
2023-05-15T00:04:07.285Z,100616.82
2023-05-15T00:06:38.602Z,100617.81
2023-05-15T00:09:09.195Z,100612.42
2023-05-15T00:11:42.334Z,100611.66
2023-05-15T00:14:11.670Z,100609.97
2023-05-15T00:16:44.095Z,100609.66
2023-05-15T00:19:13.581Z,100607.56
2023-05-15T00:21:43.033Z,100609.94
2023-05-15T00:24:12.350Z,100612.21
2023-05-15T00:26:41.698Z,100608.66
2023-05-15T00:29:11.742Z,100608.27
2023-05-15T00:31:46.464Z,100607.55
2023-05-15T00:34:15.454Z,100609.06
2023-05-15T00:36:46.859Z,100606.89
2023-05-15T00:39:16.820Z,100614.01
2023-05-15T00:41:47.268Z,100614.98
2023-05-15T00:44:19.044Z,100613.11
2023-05-15T00:46:47.974Z,100610.80
2023-05-15T00:49:17.108Z,100610.05
2023-05-15T00:51:46.251Z,100606.27
2023-05-15T00:54:16.364Z,100607.77
2023-05-15T00:56:45.990Z,100606.21
2023-05-15T00:59:15.394Z,100612.48
2023-05-15T01:01:44.987Z,100603.58
2023-05-15T01:04:13.851Z,100603.70
2023-05-15T01:06:43.435Z,100605.52
2023-05-15T01:09:12.518Z,100594.74
2023-05-15T01:11:42.278Z,100597.63
2023-05-15T01:14:13.402Z,100600.38
2023-05-15T01:16:42.861Z,100594.56
2023-05-15T01:19:12.035Z,100604.33
2023-05-15T01:21:55.847Z,100602.77
2023-05-15T01:25:05.921Z,100602.13
2023-05-15T01:27:42.008Z,100603.91
2023-05-15T01:30:25.135Z,100604.04
2023-05-15T01:33:17.151Z,100604.06
2023-05-15T01:35:51.456Z,100601.30
2023-05-15T01:38:39.013Z,100597.72
2023-05-15T01:41:31.643Z,100599.55
2023-05-15T01:44:10.689Z,100605.81
2023-05-15T01:46:42.796Z,100601.05
2023-05-15T01:49:13.715Z,100598.73
2023-05-15T01:51:44.955Z,100600.22
2023-05-15T01:54:14.682Z,100604.78
2023-05-15T01:56:45.028Z,100602.45
2023-05-15T01:59:14.659Z,100609.23
2023-05-15T02:01:43.852Z,100601.72
2023-05-15T02:04:13.438Z,100605.00
2023-05-15T02:06:42.421Z,100604.69
2023-05-15T02:09:12.351Z,100601.30
2023-05-15T02:11:43.069Z,100598.86
2023-05-15T02:14:12.240Z,100601.52
2023-05-15T02:16:41.518Z,100599.92
2023-05-15T02:19:10.973Z,100604.90
2023-05-15T02:21:40.117Z,100600.03
2023-05-15T02:24:09.346Z,100597.28
2023-05-15T02:27:13.366Z,100600.66
2023-05-15T02:30:11.801Z,100598.02
2023-05-15T02:32:51.884Z,100596.75
2023-05-15T02:35:32.852Z,100595.45
2023-05-15T02:38:05.751Z,100596.73
2023-05-15T02:40:36.620Z,100604.25
2023-05-15T02:43:07.940Z,100604.67
2023-05-15T02:45:38.119Z,100607.31
2023-05-15T02:48:09.394Z,100613.45
2023-05-15T02:50:38.894Z,100605.30
2023-05-15T02:53:09.677Z,100609.96
2023-05-15T02:55:38.771Z,100606.89
2023-05-15T02:58:07.712Z,100596.30
2023-05-15T03:00:37.000Z,100597.79
2023-05-15T03:03:07.433Z,100598.73
2023-05-15T03:05:37.011Z,100596.20
2023-05-15T03:08:08.447Z,100597.36
2023-05-15T03:10:37.655Z,100604.77
2023-05-15T03:13:06.826Z,100602.87
2023-05-15T03:15:35.936Z,100596.09
2023-05-15T03:18:05.484Z,100598.45
2023-05-15T03:20:34.435Z,100592.28
2023-05-15T03:23:03.590Z,100597.47
2023-05-15T03:25:32.844Z,100592.80
2023-05-15T03:28:01.918Z,100589.97
2023-05-15T03:30:31.140Z,100589.86
2023-05-15T03:33:02.653Z,100591.12
2023-05-15T03:35:32.351Z,100597.69
2023-05-15T03:38:01.752Z,100592.81
2023-05-15T03:40:30.977Z,100594.39
2023-05-15T03:43:00.626Z,100593.11
2023-05-15T03:45:30.090Z,100592.47
2023-05-15T03:47:58.988Z,100603.26
2023-05-15T03:50:29.596Z,100597.73
2023-05-15T03:53:00.348Z,100597.72
2023-05-15T03:55:30.528Z,100595.16
2023-05-15T03:57:59.704Z,100600.55
2023-05-15T04:00:31.634Z,100599.80
2023-05-15T04:03:01.540Z,100595.98
2023-05-15T04:05:31.445Z,100600.77
2023-05-15T04:08:01.408Z,100602.87
2023-05-15T04:10:32.688Z,100604.80
2023-05-15T04:13:01.986Z,100600.41
2023-05-15T04:15:31.061Z,100601.02
2023-05-15T04:18:00.041Z,100597.38
2023-05-15T04:20:29.489Z,100605.71
2023-05-15T04:23:00.148Z,100604.39
2023-05-15T04:25:29.664Z,100604.98
2023-05-15T04:27:59.043Z,100606.97
2023-05-15T04:30:28.006Z,100607.02
2023-05-15T04:32:58.375Z,100602.92
2023-05-15T04:35:27.879Z,100599.58
2023-05-15T04:37:57.231Z,100596.86
2023-05-15T04:40:26.460Z,100591.91
2023-05-15T04:42:56.908Z,100593.84
2023-05-15T04:45:26.858Z,100591.48
2023-05-15T04:47:55.891Z,100586.59
2023-05-15T04:50:25.371Z,100578.18
2023-05-15T04:52:54.793Z,100584.72
2023-05-15T04:55:24.227Z,100580.20
2023-05-15T04:57:55.427Z,100586.52
2023-05-15T05:00:24.749Z,100580.98
2023-05-15T05:02:55.363Z,100583.21
2023-05-15T05:05:24.314Z,100579.96
2023-05-15T05:07:53.635Z,100573.66
2023-05-15T05:10:23.149Z,100572.26
2023-05-15T05:12:54.136Z,100570.39
2023-05-15T05:15:24.775Z,100577.00
2023-05-15T05:17:54.287Z,100564.21
2023-05-15T05:20:23.600Z,100562.81
2023-05-15T05:22:53.543Z,100560.55
2023-05-15T05:25:24.092Z,100556.22
2023-05-15T05:27:52.985Z,100551.34
2023-05-15T05:30:23.595Z,100551.99
2023-05-15T05:32:52.997Z,100554.19
2023-05-15T05:35:22.340Z,100558.27
2023-05-15T05:37:51.586Z,100551.16
2023-05-15T05:42:50.310Z,100551.82
2023-05-15T05:45:19.921Z,100552.00
2023-05-15T05:47:49.515Z,100553.30
2023-05-15T05:50:18.744Z,100551.42
2023-05-15T05:52:47.878Z,100545.00
2023-05-15T05:55:16.874Z,100542.44
2023-05-15T05:57:46.064Z,100543.75
2023-05-15T06:00:15.849Z,100538.30
2023-05-15T06:02:45.263Z,100542.36
2023-05-15T06:05:14.609Z,100539.93
2023-05-15T06:07:44.193Z,100539.77
2023-05-15T06:10:13.704Z,100534.92
2023-05-15T06:12:43.642Z,100536.75
2023-05-15T06:15:14.624Z,100536.28
2023-05-15T06:17:44.556Z,100538.14
2023-05-15T06:20:15.501Z,100538.95
2023-05-15T06:22:45.079Z,100538.95
2023-05-15T06:25:14.745Z,100526.88
2023-05-15T06:27:44.413Z,100533.34
2023-05-15T06:30:14.505Z,100538.89
2023-05-15T06:32:44.555Z,100529.81
2023-05-15T06:35:14.689Z,100530.38
2023-05-15T06:37:44.166Z,100531.83
2023-05-15T06:40:13.743Z,100531.66
2023-05-15T06:42:43.025Z,100526.91
2023-05-15T06:45:12.815Z,100525.76
2023-05-15T06:47:41.865Z,100524.92
2023-05-15T06:50:11.318Z,100521.40
2023-05-15T06:52:40.912Z,100516.98
2023-05-15T06:55:10.620Z,100518.66
2023-05-15T06:57:39.983Z,100519.09
2023-05-15T07:00:10.595Z,100522.01
2023-05-15T07:02:40.478Z,100524.77
2023-05-15T07:05:11.283Z,100516.22
2023-05-15T07:07:40.938Z,100514.30
2023-05-15T07:10:10.236Z,100520.75
2023-05-15T07:12:40.302Z,100518.61
2023-05-15T07:15:10.099Z,100515.63
2023-05-15T07:17:40.339Z,100511.36
2023-05-15T07:20:10.620Z,100515.80
2023-05-15T07:22:51.883Z,100518.18
2023-05-15T07:25:11.214Z,100509.67
2023-05-15T07:27:40.926Z,100506.22
2023-05-15T07:30:11.666Z,100507.61
2023-05-15T07:32:42.090Z,100501.25
2023-05-15T07:35:12.195Z,100500.49
2023-05-15T07:37:42.162Z,100498.58
2023-05-15T07:40:12.334Z,100502.13
2023-05-15T07:42:44.812Z,100505.23
2023-05-15T07:45:14.843Z,100493.81
2023-05-15T07:47:47.430Z,100495.03
2023-05-15T07:50:17.262Z,100494.41
2023-05-15T07:52:46.301Z,100498.83
2023-05-15T07:55:14.869Z,100494.89
2023-05-15T07:57:45.420Z,100493.34
2023-05-15T08:00:17.196Z,100484.94
2023-05-15T08:02:47.142Z,100488.39
2023-05-15T08:05:17.025Z,100479.91
2023-05-15T08:07:46.498Z,100482.76
2023-05-15T08:10:15.518Z,100478.20
2023-05-15T08:12:47.250Z,100477.16
2023-05-15T08:15:16.553Z,100477.02
2023-05-15T08:17:45.776Z,100471.94
2023-05-15T08:20:17.403Z,100469.43
2023-05-15T08:22:47.060Z,100466.30
2023-05-15T08:25:16.945Z,100471.98
2023-05-15T08:27:46.693Z,100473.66
2023-05-15T08:30:19.821Z,100465.05
2023-05-15T08:32:49.422Z,100467.59
2023-05-15T08:35:18.667Z,100463.16
2023-05-15T08:37:48.682Z,100464.63
2023-05-15T08:40:23.422Z,100464.11
2023-05-15T08:42:53.338Z,100461.00
2023-05-15T08:45:23.799Z,100458.61
2023-05-15T08:47:53.378Z,100457.80
2023-05-15T08:50:22.635Z,100454.91
2023-05-15T08:52:52.230Z,100453.87
2023-05-15T08:55:23.504Z,100452.66
2023-05-15T08:57:53.521Z,100450.74
2023-05-15T09:00:22.777Z,100442.84
2023-05-15T09:02:54.458Z,100449.81
2023-05-15T09:05:24.950Z,100447.55
2023-05-15T09:07:54.422Z,100443.11
2023-05-15T09:10:23.986Z,100448.71
2023-05-15T09:12:54.262Z,100445.24
2023-05-15T09:15:24.989Z,100446.72
2023-05-15T09:17:54.868Z,100445.23
2023-05-15T09:20:31.850Z,100433.95
2023-05-15T09:23:03.881Z,100441.63
2023-05-15T09:25:42.005Z,100441.83
2023-05-15T09:28:28.428Z,100437.28
2023-05-15T09:31:03.190Z,100431.19
2023-05-15T09:33:37.540Z,100421.53
2023-05-15T09:36:08.471Z,100428.54
2023-05-15T09:38:43.208Z,100436.50
2023-05-15T09:41:12.051Z,100423.72
2023-05-15T09:43:41.954Z,100427.06
2023-05-15T09:46:13.093Z,100431.67
2023-05-15T09:48:42.614Z,100430.37
2023-05-15T09:51:19.454Z,100430.06
2023-05-15T09:53:52.932Z,100418.17
2023-05-15T09:56:22.261Z,100435.38
2023-05-15T09:59:01.204Z,100435.38
2023-05-15T10:01:31.780Z,100423.73
2023-05-15T10:04:02.190Z,100428.34
2023-05-15T10:06:37.949Z,100433.84
2023-05-15T10:09:08.747Z,100421.02
2023-05-15T10:11:40.507Z,100424.19
2023-05-15T10:14:12.397Z,100425.59
2023-05-15T10:16:42.148Z,100415.12
2023-05-15T10:19:12.522Z,100412.48
2023-05-15T10:21:42.654Z,100411.59
2023-05-15T10:24:13.083Z,100408.47
2023-05-15T10:26:42.855Z,100411.59
2023-05-15T10:29:13.366Z,100413.36
2023-05-15T10:31:43.204Z,100415.74
2023-05-15T10:34:13.440Z,100405.59
2023-05-15T10:36:43.755Z,100398.23
2023-05-15T10:39:13.730Z,100399.29
2023-05-15T10:41:44.302Z,100395.90
2023-05-15T10:44:12.907Z,100391.82
2023-05-15T10:46:43.544Z,100386.09
2023-05-15T10:49:13.267Z,100393.17
2023-05-15T10:51:43.009Z,100386.60
2023-05-15T10:54:12.788Z,100395.09
2023-05-15T10:56:42.061Z,100390.45
2023-05-15T10:59:12.156Z,100395.59
2023-05-15T11:01:41.674Z,100383.60
2023-05-15T11:04:15.567Z,100379.37
2023-05-15T11:06:46.549Z,100376.05
2023-05-15T11:09:37.521Z,100369.63
2023-05-15T11:12:11.552Z,100361.23
2023-05-15T11:14:56.556Z,100361.50
2023-05-15T11:17:26.591Z,100359.52
2023-05-15T11:19:58.047Z,100366.77
2023-05-15T11:22:33.212Z,100356.56
2023-05-15T11:25:05.982Z,100342.23
2023-05-15T11:27:47.305Z,100341.72
2023-05-15T11:30:26.519Z,100337.69
2023-05-15T11:33:10.969Z,100332.12
2023-05-15T11:35:48.275Z,100330.45
2023-05-15T11:38:25.730Z,100334.49
2023-05-15T11:41:01.772Z,100333.09
2023-05-15T11:43:44.144Z,100328.30
2023-05-15T11:46:23.570Z,100328.34
2023-05-15T11:48:53.491Z,100333.44
2023-05-15T11:51:26.439Z,100324.65
2023-05-15T11:53:56.450Z,100315.38
2023-05-15T11:56:29.247Z,100311.83
2023-05-15T11:58:59.365Z,100309.89
2023-05-15T12:01:29.770Z,100320.61
2023-05-15T12:03:59.252Z,100319.25
2023-05-15T12:06:28.590Z,100312.80
2023-05-15T12:08:57.789Z,100303.83
2023-05-15T12:11:27.136Z,100306.08
2023-05-15T12:13:56.239Z,100316.48
2023-05-15T12:16:28.488Z,100298.25
2023-05-15T12:18:57.927Z,100305.86
2023-05-15T12:21:30.153Z,100296.84
2023-05-15T12:24:07.684Z,100288.94
2023-05-15T12:26:32.016Z,100280.16
2023-05-15T12:29:00.901Z,100284.33
2023-05-15T12:31:31.168Z,100273.66
2023-05-15T12:34:00.688Z,100282.05
2023-05-15T12:36:31.016Z,100273.08
2023-05-15T12:39:02.054Z,100281.25
2023-05-15T12:41:32.138Z,100281.56
2023-05-15T12:44:02.141Z,100280.81
2023-05-15T12:46:31.884Z,100283.98
2023-05-15T12:49:02.210Z,100289.97
2023-05-15T12:51:32.139Z,100282.98
2023-05-15T12:54:02.014Z,100278.50
2023-05-15T12:56:31.180Z,100287.20
2023-05-15T12:59:01.179Z,100282.63
2023-05-15T13:01:30.509Z,100280.34
2023-05-15T13:04:01.423Z,100276.12
2023-05-15T13:06:44.870Z,100270.19
2023-05-15T13:09:02.019Z,100271.59
2023-05-15T13:11:34.696Z,100283.98
2023-05-15T13:14:09.506Z,100281.75
2023-05-15T13:16:38.561Z,100286.84
2023-05-15T13:19:10.017Z,100292.47
2023-05-15T13:21:39.798Z,100283.02
2023-05-15T13:24:11.130Z,100280.61
2023-05-15T13:26:41.727Z,100281.22
2023-05-15T13:29:11.468Z,100276.13
2023-05-15T13:31:40.892Z,100278.67
2023-05-15T13:34:10.304Z,100282.55
2023-05-15T13:36:39.459Z,100276.97
2023-05-15T13:39:09.138Z,100273.32
2023-05-15T13:41:40.033Z,100270.52
2023-05-15T13:44:09.856Z,100277.27
2023-05-15T13:46:39.157Z,100272.35
2023-05-15T13:49:10.443Z,100270.20
2023-05-15T13:51:40.930Z,100274.54
2023-05-15T13:54:11.061Z,100263.99
2023-05-15T13:56:40.610Z,100262.67
2023-05-15T13:59:10.011Z,100258.23
2023-05-15T14:01:39.927Z,100256.56
2023-05-15T14:04:09.992Z,100253.48
2023-05-15T14:06:41.087Z,100257.17
2023-05-15T14:09:11.097Z,100257.48
2023-05-15T14:11:41.202Z,100257.52
2023-05-15T14:14:11.269Z,100246.59
2023-05-15T14:16:41.433Z,100249.13
2023-05-15T14:19:10.942Z,100251.67
2023-05-15T14:21:40.517Z,100241.92
2023-05-15T14:24:10.065Z,100238.85
2023-05-15T14:26:39.471Z,100246.70
2023-05-15T14:29:10.332Z,100240.86
2023-05-15T14:31:40.806Z,100241.73
2023-05-15T14:34:09.758Z,100244.27
2023-05-15T14:36:39.340Z,100235.02
2023-05-15T14:39:08.681Z,100230.28
2023-05-15T14:41:38.181Z,100225.50
2023-05-15T14:44:07.860Z,100231.95
2023-05-15T14:46:38.386Z,100225.46
2023-05-15T14:49:07.813Z,100226.56
2023-05-15T14:51:37.613Z,100221.78
2023-05-15T14:54:07.420Z,100228.76
2023-05-15T14:56:38.049Z,100228.98
2023-05-15T14:59:07.470Z,100221.44
2023-05-15T15:01:38.104Z,100208.84
2023-05-15T15:04:07.715Z,100212.79
2023-05-15T15:06:37.553Z,100208.58
2023-05-15T15:09:08.652Z,100206.91
2023-05-15T15:11:38.573Z,100201.56
2023-05-15T15:14:08.203Z,100205.50
2023-05-15T15:16:38.048Z,100206.08
2023-05-15T15:19:08.280Z,100207.52
2023-05-15T15:21:37.983Z,100201.38
2023-05-15T15:24:07.632Z,100199.17
2023-05-15T15:26:37.778Z,100202.32
2023-05-15T15:29:09.517Z,100200.66
2023-05-15T15:31:40.088Z,100196.75
2023-05-15T15:34:09.942Z,100192.02
2023-05-15T15:36:40.919Z,100195.42
2023-05-15T15:39:11.683Z,100196.03
2023-05-15T15:41:46.957Z,100195.50
2023-05-15T15:44:20.198Z,100201.14
2023-05-15T15:46:49.638Z,100206.22
2023-05-15T15:49:18.974Z,100208.23
2023-05-15T15:51:48.803Z,100203.78
2023-05-15T15:54:20.651Z,100205.48
2023-05-15T15:56:50.081Z,100208.86
2023-05-15T15:59:19.051Z,100204.39
2023-05-15T16:01:49.168Z,100199.91
2023-05-15T16:04:19.488Z,100197.41
2023-05-15T16:06:48.734Z,100196.05
2023-05-15T16:09:19.722Z,100201.72
2023-05-15T16:11:48.857Z,100195.34
2023-05-15T16:14:23.789Z,100197.38
2023-05-15T16:16:53.199Z,100201.34
2023-05-15T16:19:23.728Z,100201.41
2023-05-15T16:21:53.454Z,100192.52
2023-05-15T16:24:23.903Z,100194.52
2023-05-15T16:26:55.002Z,100192.02
2023-05-15T16:29:24.503Z,100190.67
2023-05-15T16:31:56.270Z,100194.91
2023-05-15T16:34:25.903Z,100197.17
2023-05-15T16:36:55.143Z,100187.95
2023-05-15T16:39:26.530Z,100196.95
2023-05-15T16:41:55.835Z,100199.52
2023-05-15T16:44:24.500Z,100193.11
2023-05-15T16:46:53.620Z,100186.39
2023-05-15T16:49:23.030Z,100193.19
2023-05-15T16:51:52.687Z,100191.54
2023-05-15T16:54:21.367Z,100189.36
2023-05-15T16:56:52.011Z,100186.88
2023-05-15T16:59:21.324Z,100185.52
2023-05-15T17:01:50.798Z,100186.97
2023-05-15T17:04:20.215Z,100185.33
2023-05-15T17:06:51.528Z,100180.61
2023-05-15T17:09:21.579Z,100183.15
2023-05-15T17:11:50.597Z,100187.44
2023-05-15T17:14:19.752Z,100193.36
2023-05-15T17:16:49.043Z,100191.45
2023-05-15T17:19:19.667Z,100194.06
2023-05-15T17:21:48.982Z,100197.20
2023-05-15T17:24:18.798Z,100205.64
2023-05-15T17:26:48.088Z,100201.79
2023-05-15T17:29:18.283Z,100206.57
2023-05-15T17:31:47.559Z,100210.23
2023-05-15T17:34:17.010Z,100212.50
2023-05-15T17:36:46.311Z,100210.30
2023-05-15T17:39:15.652Z,100209.76
2023-05-15T17:41:46.679Z,100219.28
2023-05-15T17:44:16.501Z,100226.84
2023-05-15T17:46:45.675Z,100220.71
2023-05-15T17:49:15.201Z,100231.62
2023-05-15T17:51:44.609Z,100229.70
2023-05-15T17:54:13.691Z,100235.88
2023-05-15T17:56:45.084Z,100234.43
2023-05-15T17:59:16.155Z,100236.41
2023-05-15T18:01:45.236Z,100243.95
2023-05-15T18:04:16.285Z,100244.80
2023-05-15T18:06:47.288Z,100256.25
2023-05-15T18:09:16.706Z,100255.97
2023-05-15T18:11:46.495Z,100253.73
2023-05-15T18:14:17.916Z,100252.89
2023-05-15T18:16:46.989Z,100260.42
2023-05-15T18:19:16.287Z,100262.89
2023-05-15T18:21:45.318Z,100263.41
2023-05-15T18:24:15.682Z,100268.98
2023-05-15T18:26:46.695Z,100274.27
2023-05-15T18:29:16.333Z,100271.73
2023-05-15T18:31:46.108Z,100270.30
2023-05-15T18:34:16.241Z,100276.41
2023-05-15T18:36:49.644Z,100278.00
2023-05-15T18:39:19.091Z,100282.70
2023-05-15T18:41:48.469Z,100284.55
2023-05-15T18:44:17.808Z,100281.98
2023-05-15T18:46:48.227Z,100281.94
2023-05-15T18:49:17.815Z,100286.38
2023-05-15T18:51:47.013Z,100290.27
2023-05-15T18:54:16.211Z,100289.13
2023-05-15T18:56:46.113Z,100291.05
2023-05-15T18:59:15.972Z,100289.63
2023-05-15T19:01:46.321Z,100284.84
2023-05-15T19:04:16.063Z,100285.10
2023-05-15T19:06:46.871Z,100283.96
2023-05-15T19:09:18.880Z,100292.01
2023-05-15T19:11:51.848Z,100287.51
2023-05-15T19:14:21.509Z,100283.03
2023-05-15T19:16:51.140Z,100287.67
2023-05-15T19:19:21.103Z,100282.34
2023-05-15T19:21:51.884Z,100281.70
2023-05-15T19:24:23.246Z,100287.25
2023-05-15T19:26:52.737Z,100288.36
2023-05-15T19:29:21.956Z,100284.42
2023-05-15T19:31:51.109Z,100292.16
2023-05-15T19:34:21.035Z,100292.97
2023-05-15T19:36:50.574Z,100288.48
2023-05-15T19:39:19.935Z,100297.02
2023-05-15T19:41:50.302Z,100303.05
2023-05-15T19:44:19.976Z,100300.71
2023-05-15T19:46:49.369Z,100303.41
2023-05-15T19:49:18.679Z,100297.53
2023-05-15T19:51:48.475Z,100304.45
2023-05-15T19:54:18.829Z,100303.30
2023-05-15T19:56:49.333Z,100313.55
2023-05-15T19:59:19.282Z,100315.20
2023-05-15T20:01:48.489Z,100314.36
2023-05-15T20:04:17.823Z,100313.23
2023-05-15T20:06:47.682Z,100315.98
2023-05-15T20:09:17.427Z,100320.67
2023-05-15T20:11:46.431Z,100321.67
2023-05-15T20:14:15.942Z,100318.47
2023-05-15T20:16:45.363Z,100312.88
2023-05-15T20:19:16.758Z,100318.98
2023-05-15T20:21:47.841Z,100318.12
2023-05-15T20:24:18.195Z,100322.55
2023-05-15T20:26:47.426Z,100328.36
2023-05-15T20:29:16.824Z,100324.22
2023-05-15T20:31:46.510Z,100331.50
2023-05-15T20:34:16.967Z,100334.59
2023-05-15T20:36:47.514Z,100334.47
2023-05-15T20:39:17.237Z,100334.25
2023-05-15T20:41:47.233Z,100331.78
2023-05-15T20:44:16.933Z,100324.90
2023-05-15T20:46:46.607Z,100338.86
2023-05-15T20:49:16.079Z,100338.05
2023-05-15T20:51:45.424Z,100340.31
2023-05-15T20:54:17.533Z,100335.63
2023-05-15T20:56:48.150Z,100333.70
2023-05-15T20:59:18.168Z,100333.19
2023-05-15T21:01:47.952Z,100329.05
2023-05-15T21:04:17.724Z,100329.34
2023-05-15T21:06:47.552Z,100328.52
2023-05-15T21:09:17.090Z,100334.92
2023-05-15T21:11:47.288Z,100341.04
2023-05-15T21:14:17.145Z,100342.40
2023-05-15T21:16:46.713Z,100340.43
2023-05-15T21:19:16.299Z,100335.97
2023-05-15T21:21:46.152Z,100326.76
2023-05-15T21:24:16.848Z,100330.09
2023-05-15T21:26:46.990Z,100333.16
2023-05-15T21:29:16.437Z,100322.56
2023-05-15T21:31:45.628Z,100323.66
2023-05-15T21:34:17.234Z,100324.21
2023-05-15T21:36:47.089Z,100330.88
2023-05-15T21:39:16.403Z,100331.13
2023-05-15T21:41:45.569Z,100330.58
2023-05-15T21:44:14.865Z,100336.69
2023-05-15T21:46:45.438Z,100339.44
2023-05-15T21:49:15.273Z,100336.89
2023-05-15T21:51:44.923Z,100340.19
2023-05-15T21:54:14.468Z,100336.54
2023-05-15T21:56:43.785Z,100341.52
2023-05-15T21:59:14.640Z,100340.67
2023-05-15T22:01:44.943Z,100342.61
2023-05-15T22:04:14.707Z,100340.94
2023-05-15T22:06:44.144Z,100335.60
2023-05-15T22:09:13.965Z,100340.87
2023-05-15T22:11:43.396Z,100334.59
2023-05-15T22:17:01.632Z,100334.91
2023-05-15T22:19:33.425Z,100335.58
2023-05-15T22:22:04.279Z,100333.49
2023-05-15T22:24:35.374Z,100331.77
2023-05-15T22:27:05.377Z,100333.41
2023-05-15T22:29:35.170Z,100328.70
2023-05-15T22:32:06.489Z,100332.87
2023-05-15T22:34:36.343Z,100331.70
2023-05-15T22:37:05.811Z,100328.63
2023-05-15T22:39:35.133Z,100329.43
2023-05-15T22:42:04.835Z,100326.88
2023-05-15T22:44:34.032Z,100327.63
2023-05-15T22:47:03.536Z,100327.81
2023-05-15T22:49:33.226Z,100317.77
2023-05-15T22:52:02.171Z,100320.17
2023-05-15T22:54:32.118Z,100309.28
2023-05-15T22:57:02.546Z,100311.47
2023-05-15T22:59:32.065Z,100302.81
2023-05-15T23:02:02.477Z,100306.31
2023-05-15T23:04:32.050Z,100302.91
2023-05-15T23:07:01.802Z,100299.75
2023-05-15T23:09:31.500Z,100298.03
2023-05-15T23:12:01.559Z,100300.12
2023-05-15T23:14:31.772Z,100297.27
2023-05-15T23:17:00.977Z,100298.06
2023-05-15T23:19:31.521Z,100294.41
2023-05-15T23:22:01.304Z,100288.81
2023-05-15T23:24:31.548Z,100292.34
2023-05-15T23:27:01.203Z,100280.20
2023-05-15T23:29:31.153Z,100283.09
2023-05-15T23:32:00.448Z,100277.11
2023-05-15T23:34:29.711Z,100278.10
2023-05-15T23:36:58.904Z,100273.40
2023-05-15T23:39:27.984Z,100278.59
2023-05-15T23:41:57.468Z,100268.85
2023-05-15T23:44:27.308Z,100273.55
2023-05-15T23:46:57.480Z,100269.89
2023-05-15T23:49:26.573Z,100274.64
2023-05-15T23:51:56.045Z,100281.27
2023-05-15T23:54:25.826Z,100274.09
2023-05-15T23:56:56.239Z,100272.46
2023-05-15T23:59:26.002Z,100269.73
